createdAt,value
2022-12-27T00:00:50.721Z,6.32
2022-12-27T00:03:55.264Z,6.19
2022-12-27T00:06:58.201Z,6.18
2022-12-27T00:10:02.412Z,6.00
2022-12-27T00:13:05.176Z,6.15
2022-12-27T00:16:12.723Z,5.93
2022-12-27T00:19:17.251Z,5.88
2022-12-27T00:22:20.267Z,5.94
2022-12-27T00:25:24.258Z,5.97
2022-12-27T00:28:27.046Z,5.75
2022-12-27T00:31:34.042Z,5.76
2022-12-27T00:34:38.298Z,5.62
2022-12-27T00:37:41.044Z,5.76
2022-12-27T00:40:45.385Z,5.58
2022-12-27T00:43:48.789Z,5.40
2022-12-27T00:46:54.141Z,5.51
2022-12-27T00:49:56.845Z,5.50
2022-12-27T00:53:00.968Z,5.43
2022-12-27T00:56:09.180Z,5.32
2022-12-27T00:59:12.688Z,5.36
2022-12-27T01:02:18.091Z,5.26
2022-12-27T01:05:22.262Z,5.28
2022-12-27T01:08:26.251Z,5.12
2022-12-27T01:11:29.824Z,5.08
2022-12-27T01:14:32.577Z,5.04
2022-12-27T01:17:38.019Z,5.06
2022-12-27T01:20:41.016Z,5.04
2022-12-27T01:23:45.707Z,5.00
2022-12-27T01:26:48.680Z,4.94
2022-12-27T01:29:54.240Z,5.00
2022-12-27T01:32:59.844Z,5.08
2022-12-27T01:36:10.740Z,5.04
2022-12-27T01:39:17.368Z,4.97
2022-12-27T01:42:39.767Z,4.96
2022-12-27T01:45:42.772Z,4.91
2022-12-27T01:48:48.957Z,4.84
2022-12-27T01:51:51.929Z,4.87
2022-12-27T01:54:59.191Z,4.81
2022-12-27T01:58:06.136Z,4.85
2022-12-27T02:01:14.792Z,4.82
2022-12-27T02:04:23.140Z,4.61
2022-12-27T02:07:32.579Z,4.65
2022-12-27T02:10:37.528Z,4.59
2022-12-27T02:13:44.483Z,4.53
2022-12-27T02:16:48.760Z,4.42
2022-12-27T02:20:01.173Z,4.47
2022-12-27T02:23:58.947Z,4.38
2022-12-27T02:27:07.103Z,4.44
2022-12-27T02:30:14.605Z,4.36
2022-12-27T02:33:24.740Z,4.38
2022-12-27T02:36:32.529Z,4.32
2022-12-27T02:39:40.282Z,4.43
2022-12-27T02:43:04.580Z,4.39
2022-12-27T02:46:33.291Z,4.31
2022-12-27T02:49:57.744Z,4.31
2022-12-27T02:53:08.968Z,4.23
2022-12-27T02:56:46.198Z,4.32
2022-12-27T03:00:24.637Z,4.26
2022-12-27T03:03:44.729Z,4.22
2022-12-27T03:07:00.173Z,4.15
2022-12-27T03:10:34.259Z,4.17
2022-12-27T03:14:04.245Z,4.10
2022-12-27T03:17:16.165Z,4.15
2022-12-27T03:20:40.406Z,4.10
2022-12-27T03:24:04.625Z,4.01
2022-12-27T03:27:18.247Z,4.08
2022-12-27T03:30:39.417Z,4.13
2022-12-27T03:33:44.998Z,4.18
2022-12-27T03:37:08.852Z,4.10
2022-12-27T03:40:19.506Z,4.00
2022-12-27T03:43:21.516Z,4.11
2022-12-27T03:46:35.729Z,4.06
2022-12-27T03:49:43.311Z,4.15
2022-12-27T03:52:53.777Z,4.04
2022-12-27T03:55:58.178Z,3.97
2022-12-27T03:59:04.071Z,4.04
2022-12-27T04:02:09.196Z,4.05
2022-12-27T04:05:14.111Z,3.90
2022-12-27T04:08:35.918Z,4.00
2022-12-27T04:11:57.282Z,4.06
2022-12-27T04:15:17.605Z,3.89
2022-12-27T04:18:38.086Z,3.90
2022-12-27T04:21:59.447Z,4.03
2022-12-27T04:25:21.132Z,3.98
2022-12-27T04:28:42.576Z,4.06
2022-12-27T04:32:02.646Z,4.02
2022-12-27T04:35:07.404Z,3.90
2022-12-27T04:38:10.234Z,4.08
2022-12-27T04:41:32.544Z,4.32
2022-12-27T04:44:59.191Z,4.18
2022-12-27T04:48:19.592Z,4.10
2022-12-27T04:51:40.824Z,4.10
2022-12-27T04:54:59.766Z,4.04
2022-12-27T04:58:03.985Z,4.06
2022-12-27T05:01:25.705Z,4.07
2022-12-27T05:04:30.008Z,4.07
2022-12-27T05:07:51.301Z,4.09
2022-12-27T05:11:11.555Z,4.00
2022-12-27T05:14:17.869Z,4.09
2022-12-27T05:17:20.843Z,4.04
2022-12-27T05:20:23.707Z,4.18
2022-12-27T05:23:43.962Z,4.23
2022-12-27T05:26:49.855Z,4.28
2022-12-27T05:29:54.970Z,4.22
2022-12-27T05:33:01.653Z,4.28
2022-12-27T05:36:04.675Z,4.17
2022-12-27T05:39:08.494Z,4.19
2022-12-27T05:42:11.381Z,4.19
2022-12-27T05:45:16.732Z,4.37
2022-12-27T05:48:19.714Z,4.30
2022-12-27T05:51:23.894Z,4.33
2022-12-27T05:54:27.818Z,4.29
2022-12-27T05:57:31.038Z,4.35
2022-12-27T06:00:36.666Z,4.26
2022-12-27T06:03:39.905Z,4.28
2022-12-27T06:06:43.070Z,4.18
2022-12-27T06:09:45.916Z,4.20
2022-12-27T06:12:48.736Z,4.15
2022-12-27T06:15:53.895Z,4.24
2022-12-27T06:18:57.996Z,4.21
2022-12-27T06:22:00.937Z,4.24
2022-12-27T06:25:03.891Z,4.30
2022-12-27T06:28:06.828Z,4.24
2022-12-27T06:31:12.514Z,4.09
2022-12-27T06:34:15.634Z,4.23
2022-12-27T06:37:19.774Z,4.30
2022-12-27T06:40:23.866Z,4.33
2022-12-27T06:43:27.076Z,4.38
2022-12-27T06:46:31.625Z,4.39
2022-12-27T06:49:34.466Z,4.54
2022-12-27T06:52:38.565Z,4.43
2022-12-27T06:55:41.394Z,4.34
2022-12-27T06:58:44.612Z,4.35
2022-12-27T07:01:50.083Z,4.51
2022-12-27T07:04:53.393Z,4.39
2022-12-27T07:07:57.202Z,4.44
2022-12-27T07:11:02.865Z,4.58
2022-12-27T07:14:09.565Z,4.53
2022-12-27T07:17:14.770Z,4.58
2022-12-27T07:20:18.712Z,4.54
2022-12-27T07:23:21.448Z,4.61
2022-12-27T07:26:27.751Z,4.73
2022-12-27T07:29:30.734Z,4.88
2022-12-27T07:32:35.848Z,4.85
2022-12-27T07:35:44.963Z,4.69
2022-12-27T07:38:48.706Z,4.78
2022-12-27T07:41:51.543Z,4.97
2022-12-27T07:44:54.374Z,4.90
2022-12-27T07:47:59.471Z,5.10
2022-12-27T07:51:02.796Z,5.01
2022-12-27T07:54:06.979Z,5.24
2022-12-27T07:57:10.636Z,5.19
2022-12-27T08:00:14.540Z,5.07
2022-12-27T08:03:20.416Z,5.04
2022-12-27T08:06:27.041Z,4.97
2022-12-27T08:09:32.485Z,5.00
2022-12-27T08:12:36.143Z,4.93
2022-12-27T08:15:40.955Z,5.04
2022-12-27T08:18:46.113Z,4.83
2022-12-27T08:21:48.832Z,4.82
2022-12-27T08:24:52.646Z,4.85
2022-12-27T08:28:04.731Z,4.91
2022-12-27T08:31:08.992Z,4.88
2022-12-27T08:34:14.074Z,4.96
2022-12-27T08:37:17.981Z,4.95
2022-12-27T08:40:21.033Z,5.00
2022-12-27T08:43:24.709Z,5.09
2022-12-27T08:46:27.431Z,5.11
2022-12-27T08:49:32.565Z,5.14
2022-12-27T08:52:36.280Z,5.07
2022-12-27T08:55:38.993Z,5.16
2022-12-27T08:58:42.630Z,5.13
2022-12-27T09:01:45.515Z,5.19
2022-12-27T09:04:50.741Z,5.25
2022-12-27T09:07:54.458Z,5.33
2022-12-27T09:10:57.482Z,5.29
2022-12-27T09:14:03.090Z,5.39
2022-12-27T09:17:07.106Z,5.45
2022-12-27T09:20:14.179Z,5.42
2022-12-27T09:23:18.001Z,5.50
2022-12-27T09:26:22.570Z,5.42
2022-12-27T09:29:26.467Z,5.53
2022-12-27T09:32:29.243Z,5.76
2022-12-27T09:35:38.443Z,6.00
2022-12-27T09:38:43.216Z,6.18
2022-12-27T09:45:23.775Z,6.44
2022-12-27T09:48:33.714Z,6.39
2022-12-27T09:51:48.617Z,6.45
2022-12-27T09:55:05.056Z,6.41
2022-12-27T09:58:24.884Z,6.35
2022-12-27T10:01:36.184Z,6.24
2022-12-27T10:05:17.903Z,6.19
2022-12-27T10:08:21.723Z,6.14
2022-12-27T10:11:41.233Z,6.58
2022-12-27T10:15:00.188Z,6.98
2022-12-27T10:18:16.274Z,7.26
2022-12-27T10:21:23.861Z,7.58
2022-12-27T10:24:36.917Z,8.26
2022-12-27T10:27:42.346Z,8.06
2022-12-27T10:30:45.705Z,7.64
2022-12-27T10:37:17.598Z,7.36
2022-12-27T10:40:29.818Z,7.17
2022-12-27T10:43:41.251Z,7.05
2022-12-27T10:46:50.541Z,7.09
2022-12-27T10:50:06.882Z,6.98
2022-12-27T10:53:35.500Z,6.87
2022-12-27T10:56:41.535Z,6.94
2022-12-27T10:59:45.787Z,6.69
2022-12-27T11:02:53.542Z,6.70
2022-12-27T11:06:03.389Z,6.64
2022-12-27T11:09:30.864Z,6.76
2022-12-27T11:12:36.149Z,6.75
2022-12-27T11:15:42.935Z,6.80
2022-12-27T11:18:49.223Z,6.78
2022-12-27T11:21:54.524Z,6.68
2022-12-27T11:25:00.899Z,6.74
2022-12-27T11:28:17.592Z,6.83
2022-12-27T11:34:53.665Z,6.81
2022-12-27T11:37:58.210Z,6.94
2022-12-27T11:41:06.685Z,6.86
2022-12-27T11:44:20.903Z,6.79
2022-12-27T11:51:05.076Z,6.86
2022-12-27T11:54:21.883Z,6.92
2022-12-27T11:57:40.800Z,7.00
2022-12-27T12:00:59.156Z,6.91
2022-12-27T12:04:42.915Z,6.91
2022-12-27T12:08:03.716Z,6.90
2022-12-27T12:11:16.704Z,6.90
2022-12-27T12:14:58.867Z,6.91
2022-12-27T12:18:28.730Z,6.99
2022-12-27T12:21:37.021Z,7.08
2022-12-27T12:25:37.446Z,7.36
2022-12-27T12:28:59.879Z,7.57
2022-12-27T12:32:18.559Z,7.78
2022-12-27T12:35:51.799Z,7.72
2022-12-27T12:39:03.827Z,7.75
2022-12-27T12:42:20.349Z,7.84
2022-12-27T12:45:39.959Z,7.65
2022-12-27T12:49:11.619Z,7.52
2022-12-27T12:52:32.421Z,7.52
2022-12-27T12:55:48.172Z,7.40
2022-12-27T12:59:03.863Z,7.31
2022-12-27T13:02:42.122Z,7.19
2022-12-27T13:05:52.383Z,7.19
2022-12-27T13:09:04.879Z,7.26
2022-12-27T13:12:14.554Z,7.29
2022-12-27T13:15:30.643Z,7.35
2022-12-27T13:18:44.307Z,7.18
2022-12-27T13:21:59.648Z,7.27
2022-12-27T13:25:16.543Z,7.26
2022-12-27T13:28:37.205Z,7.30
2022-12-27T13:31:48.221Z,7.23
2022-12-27T13:35:06.418Z,7.33
2022-12-27T13:38:20.562Z,7.19
2022-12-27T13:41:40.365Z,7.16
2022-12-27T13:44:55.564Z,7.19
2022-12-27T13:48:10.669Z,7.22
2022-12-27T13:51:38.428Z,7.34
2022-12-27T13:55:22.043Z,7.15
2022-12-27T13:59:06.923Z,7.21
2022-12-27T14:02:30.607Z,7.30
2022-12-27T14:06:19.050Z,7.32
2022-12-27T14:09:45.478Z,7.20
2022-12-27T14:13:09.369Z,7.37
2022-12-27T14:16:36.175Z,7.34
2022-12-27T14:20:04.719Z,7.21
2022-12-27T14:23:35.253Z,6.91
2022-12-27T14:26:59.547Z,6.83
2022-12-27T14:30:39.584Z,6.81
2022-12-27T14:34:18.146Z,6.51
2022-12-27T14:37:45.258Z,6.50
2022-12-27T14:41:31.432Z,6.35
2022-12-27T14:45:08.186Z,6.35
2022-12-27T14:48:41.660Z,6.40
2022-12-27T14:52:25.600Z,6.25
2022-12-27T14:55:40.710Z,6.28
2022-12-27T14:59:04.919Z,6.09
2022-12-27T15:02:27.651Z,5.97
2022-12-27T15:09:13.376Z,5.91
2022-12-27T15:12:27.983Z,5.94
2022-12-27T15:15:47.006Z,5.92
2022-12-27T15:19:18.176Z,5.88
2022-12-27T15:22:30.303Z,5.69
2022-12-27T15:25:48.700Z,5.55
2022-12-27T15:29:08.839Z,5.68
2022-12-27T15:32:24.824Z,5.62
2022-12-27T15:35:41.437Z,5.54
2022-12-27T15:38:54.008Z,5.46
2022-12-27T15:42:09.744Z,5.36
2022-12-27T15:45:30.304Z,5.39
2022-12-27T15:49:08.580Z,5.31
2022-12-27T15:52:20.703Z,5.41
2022-12-27T15:59:54.177Z,5.40
2022-12-27T16:03:00.026Z,5.26
2022-12-27T16:06:05.482Z,5.22
2022-12-27T16:09:36.674Z,5.23
2022-12-27T16:12:44.024Z,5.07
2022-12-27T16:15:55.155Z,5.10
2022-12-27T16:19:13.926Z,5.17
2022-12-27T16:22:27.556Z,5.12
2022-12-27T16:25:34.683Z,5.08
2022-12-27T16:28:45.136Z,4.98
2022-12-27T16:31:50.956Z,5.00
2022-12-27T16:34:59.021Z,5.08
2022-12-27T16:38:04.486Z,5.03
2022-12-27T16:41:17.059Z,5.00
2022-12-27T16:44:36.249Z,5.00
2022-12-27T16:48:18.614Z,4.98
2022-12-27T16:51:33.014Z,4.91
2022-12-27T16:54:50.797Z,4.69
2022-12-27T16:58:14.267Z,4.77
2022-12-27T17:01:57.121Z,4.73
2022-12-27T17:05:01.466Z,4.81
2022-12-27T17:08:17.893Z,4.81
2022-12-27T17:11:27.007Z,4.64
2022-12-27T17:14:37.015Z,4.74
2022-12-27T17:17:40.087Z,4.76
2022-12-27T17:20:46.468Z,4.65
2022-12-27T17:23:54.584Z,4.60
2022-12-27T17:27:12.809Z,4.47
2022-12-27T17:30:24.731Z,4.38
2022-12-27T17:33:41.157Z,4.46
2022-12-27T17:36:57.326Z,4.53
2022-12-27T17:40:22.000Z,4.44
2022-12-27T17:43:54.075Z,4.46
2022-12-27T17:50:41.557Z,4.24
2022-12-27T17:54:07.399Z,4.21
2022-12-27T17:57:32.757Z,4.14
2022-12-27T18:00:39.242Z,4.13
2022-12-27T18:03:47.212Z,4.25
2022-12-27T18:06:50.755Z,4.19
2022-12-27T18:09:57.952Z,4.17
2022-12-27T18:13:06.830Z,4.09
2022-12-27T18:16:17.769Z,4.15
2022-12-27T18:19:22.665Z,4.08
2022-12-27T18:22:25.853Z,4.04
2022-12-27T18:25:32.378Z,4.00
2022-12-27T18:28:37.845Z,4.17
2022-12-27T18:31:49.500Z,4.20
2022-12-27T18:34:57.645Z,4.16
2022-12-27T18:38:01.740Z,4.03
2022-12-27T18:41:08.437Z,4.05
2022-12-27T18:44:26.541Z,4.03
2022-12-27T18:47:30.205Z,3.90
2022-12-27T18:50:36.641Z,4.01
2022-12-27T18:53:40.565Z,3.86
2022-12-27T18:56:45.285Z,3.87
2022-12-27T19:00:01.840Z,3.96
2022-12-27T19:03:16.532Z,3.97
2022-12-27T19:06:20.683Z,3.85
2022-12-27T19:09:26.432Z,3.84
2022-12-27T19:12:35.306Z,3.85
2022-12-27T19:15:44.735Z,3.85
2022-12-27T19:18:52.218Z,3.87
2022-12-27T19:21:56.596Z,3.83
2022-12-27T19:25:01.478Z,3.78
2022-12-27T19:28:08.560Z,3.68
2022-12-27T19:31:19.417Z,3.75
2022-12-27T19:34:24.627Z,3.71
2022-12-27T19:37:29.020Z,3.78
2022-12-27T19:43:55.659Z,3.72
2022-12-27T19:46:59.713Z,3.68
2022-12-27T19:50:03.695Z,3.64
2022-12-27T19:53:06.480Z,3.63
2022-12-27T19:56:11.405Z,3.60
2022-12-27T19:59:17.052Z,3.60
2022-12-27T20:02:23.523Z,3.54
2022-12-27T20:06:13.724Z,3.57
2022-12-27T20:08:53.067Z,3.58
2022-12-27T20:11:57.059Z,3.60
2022-12-27T20:15:01.046Z,3.65
2022-12-27T20:18:05.473Z,3.71
2022-12-27T20:24:31.521Z,3.77
2022-12-27T20:27:35.324Z,3.84
2022-12-27T20:30:39.683Z,3.89
2022-12-27T20:33:44.980Z,3.94
2022-12-27T20:36:48.721Z,3.95
2022-12-27T20:39:52.027Z,4.04
2022-12-27T20:42:56.960Z,4.11
2022-12-27T20:46:06.240Z,4.19
2022-12-27T20:49:10.382Z,4.19
2022-12-27T20:52:14.156Z,4.23
2022-12-27T20:55:16.867Z,4.24
2022-12-27T20:58:20.698Z,4.39
2022-12-27T21:01:26.817Z,4.46
2022-12-27T21:04:32.139Z,4.42
2022-12-27T21:07:35.971Z,4.53
2022-12-27T21:10:38.671Z,4.67
2022-12-27T21:13:44.096Z,4.65
2022-12-27T21:16:47.909Z,4.66
2022-12-27T21:19:52.096Z,4.74
2022-12-27T21:22:55.854Z,4.82
2022-12-27T21:26:04.875Z,4.84
2022-12-27T21:29:09.320Z,4.89
2022-12-27T21:32:13.183Z,4.95
2022-12-27T21:35:17.415Z,4.91
2022-12-27T21:38:21.276Z,4.94
2022-12-27T21:41:27.079Z,5.01
2022-12-27T21:44:30.950Z,5.04
2022-12-27T21:47:34.711Z,5.03
2022-12-27T21:50:38.966Z,5.11
2022-12-27T21:53:43.127Z,5.17
2022-12-27T21:56:45.857Z,5.17
2022-12-27T21:59:49.907Z,5.26
2022-12-27T22:02:53.891Z,5.29
2022-12-27T22:05:58.136Z,5.37
2022-12-27T22:09:03.337Z,5.34
2022-12-27T22:12:06.454Z,5.38
2022-12-27T22:15:11.286Z,5.39
2022-12-27T22:18:15.061Z,5.39
2022-12-27T22:21:22.482Z,5.38
2022-12-27T22:24:26.340Z,5.37
2022-12-27T22:27:29.001Z,5.38
2022-12-27T22:30:32.718Z,5.33
2022-12-27T22:33:37.390Z,5.25
2022-12-27T22:36:41.727Z,5.38
2022-12-27T22:39:45.482Z,5.28
2022-12-27T22:42:49.235Z,5.29
2022-12-27T22:45:53.936Z,5.33
2022-12-27T22:48:59.449Z,5.28
2022-12-27T22:52:03.521Z,5.18
2022-12-27T22:55:08.545Z,5.23
2022-12-27T22:58:11.250Z,5.28
2022-12-27T23:01:16.496Z,5.09
2022-12-27T23:04:20.392Z,5.22
2022-12-27T23:08:05.020Z,5.38
2022-12-27T23:10:48.385Z,5.30
2022-12-27T23:13:57.731Z,5.26
2022-12-27T23:17:01.604Z,5.14
2022-12-27T23:23:28.576Z,5.08
2022-12-27T23:26:32.371Z,4.98
2022-12-27T23:29:36.168Z,4.94
2022-12-27T23:32:39.067Z,5.13
2022-12-27T23:35:42.851Z,5.09
2022-12-27T23:38:47.226Z,5.10
2022-12-27T23:41:49.977Z,5.16
2022-12-27T23:44:53.931Z,5.28
2022-12-27T23:47:56.680Z,5.20
2022-12-27T23:51:00.606Z,5.23
2022-12-27T23:54:04.821Z,5.21
2022-12-27T23:57:22.296Z,5.28
